sensor_id;sensor_type;location;lat;lon;timestamp;pressure;altitude;pressure_sealevel;temperature;humidity
37792;BME280;29527;55.766;37.570;2023-02-01T00:01:10;98519.22;;;2.20;68.72
37792;BME280;29527;55.766;37.570;2023-02-01T00:03:35;98521.13;;;2.18;68.68
37792;BME280;29527;55.766;37.570;2023-02-01T00:06:01;98513.06;;;2.19;68.20
37792;BME280;29527;55.766;37.570;2023-02-01T00:08:27;98512.25;;;2.19;68.19
37792;BME280;29527;55.766;37.570;2023-02-01T00:11:19;98517.63;;;2.30;68.60
37792;BME280;29527;55.766;37.570;2023-02-01T00:13:44;98521.66;;;2.23;68.15
37792;BME280;29527;55.766;37.570;2023-02-01T00:16:15;98510.13;;;2.24;68.29
37792;BME280;29527;55.766;37.570;2023-02-01T00:18:42;98504.50;;;2.15;67.88
37792;BME280;29527;55.766;37.570;2023-02-01T00:21:09;98513.06;;;2.19;67.98
37792;BME280;29527;55.766;37.570;2023-02-01T00:23:36;98485.25;;;2.00;67.75
37792;BME280;29527;55.766;37.570;2023-02-01T00:26:09;98520.59;;;2.25;68.25
37792;BME280;29527;55.766;37.570;2023-02-01T00:28:36;98515.84;;;2.18;68.24
37792;BME280;29527;55.766;37.570;2023-02-01T00:31:03;98521.75;;;2.21;68.20
37792;BME280;29527;55.766;37.570;2023-02-01T00:33:30;98523.63;;;2.19;68.49
37792;BME280;29527;55.766;37.570;2023-02-01T00:35:57;98514.88;;;2.19;67.73
37792;BME280;29527;55.766;37.570;2023-02-01T00:38:24;98513.94;;;2.20;67.81
37792;BME280;29527;55.766;37.570;2023-02-01T00:40:49;98510.97;;;2.24;67.36
37792;BME280;29527;55.766;37.570;2023-02-01T00:43:15;98510.34;;;2.21;67.69
37792;BME280;29527;55.766;37.570;2023-02-01T00:45:40;98506.97;;;2.19;67.75
37792;BME280;29527;55.766;37.570;2023-02-01T00:48:06;98508.75;;;2.18;67.25
37792;BME280;29527;55.766;37.570;2023-02-01T00:50:31;98514.69;;;2.22;66.72
37792;BME280;29527;55.766;37.570;2023-02-01T00:52:56;98497.00;;;2.09;67.33
37792;BME280;29527;55.766;37.570;2023-02-01T00:55:22;98511.31;;;2.20;67.32
37792;BME280;29527;55.766;37.570;2023-02-01T00:57:47;98512.25;;;2.19;67.21
37792;BME280;29527;55.766;37.570;2023-02-01T01:00:13;98518.56;;;2.16;67.19
37792;BME280;29527;55.766;37.570;2023-02-01T01:02:38;98484.53;;;1.98;66.90
37792;BME280;29527;55.766;37.570;2023-02-01T01:05:04;98515.63;;;2.21;66.80
37792;BME280;29527;55.766;37.570;2023-02-01T01:07:29;98512.25;;;2.19;67.50
37792;BME280;29527;55.766;37.570;2023-02-01T01:09:55;98527.03;;;2.21;66.70
37792;BME280;29527;55.766;37.570;2023-02-01T01:12:20;98518.28;;;2.21;66.91
37792;BME280;29527;55.766;37.570;2023-02-01T01:14:46;98521.31;;;2.27;66.45
37792;BME280;29527;55.766;37.570;2023-02-01T01:17:11;98522.91;;;2.30;66.36
37792;BME280;29527;55.766;37.570;2023-02-01T01:19:37;98522.91;;;2.30;66.52
37792;BME280;29527;55.766;37.570;2023-02-01T01:22:02;98530.00;;;2.29;66.41
37792;BME280;29527;55.766;37.570;2023-02-01T01:24:28;98497.00;;;2.09;66.83
37792;BME280;29527;55.766;37.570;2023-02-01T01:26:53;98531.06;;;2.27;66.63
37792;BME280;29527;55.766;37.570;2023-02-01T01:29:19;98505.28;;;2.18;66.44
37792;BME280;29527;55.766;37.570;2023-02-01T01:31:44;98524.72;;;2.29;66.42
37792;BME280;29527;55.766;37.570;2023-02-01T01:34:10;98528.28;;;2.28;66.77
37792;BME280;29527;55.766;37.570;2023-02-01T01:36:35;98530.09;;;2.28;66.37
37792;BME280;29527;55.766;37.570;2023-02-01T01:39:01;98540.47;;;2.31;66.15
37792;BME280;29527;55.766;37.570;2023-02-01T01:41:30;98541.09;;;2.35;66.21
37792;BME280;29527;55.766;37.570;2023-02-01T01:44:01;98542.28;;;2.31;66.28
37792;BME280;29527;55.766;37.570;2023-02-01T01:46:28;98533.47;;;2.30;66.32
37792;BME280;29527;55.766;37.570;2023-02-01T01:49:18;98535.72;;;2.36;66.42
37792;BME280;29527;55.766;37.570;2023-02-01T01:51:55;98536.03;;;2.32;66.33
37792;BME280;29527;55.766;37.570;2023-02-01T01:54:25;98538.03;;;2.28;66.51
37792;BME280;29527;55.766;37.570;2023-02-01T01:56:57;98530.41;;;2.23;66.05
37792;BME280;29527;55.766;37.570;2023-02-01T01:59:25;98540.13;;;2.23;65.41
37792;BME280;29527;55.766;37.570;2023-02-01T02:01:52;98528.63;;;2.24;66.49
37792;BME280;29527;55.766;37.570;2023-02-01T02:04:18;98531.25;;;2.24;66.23
37792;BME280;29527;55.766;37.570;2023-02-01T02:06:53;98528.19;;;2.30;65.72
37792;BME280;29527;55.766;37.570;2023-02-01T02:09:20;98525.34;;;2.20;65.95
37792;BME280;29527;55.766;37.570;2023-02-01T02:11:46;98524.06;;;2.13;66.17
37792;BME280;29527;55.766;37.570;2023-02-01T02:14:14;98499.19;;;2.03;66.33
37792;BME280;29527;55.766;37.570;2023-02-01T02:17:10;98505.13;;;2.06;66.56
37792;BME280;29527;55.766;37.570;2023-02-01T02:36:48;98524.81;;;2.15;66.12
37792;BME280;29527;55.766;37.570;2023-02-01T02:41:57;98550.81;;;2.34;65.49
37792;BME280;29527;55.766;37.570;2023-02-01T02:45:16;98556.53;;;2.41;66.20
37792;BME280;29527;55.766;37.570;2023-02-01T02:48:18;98552.13;;;2.41;65.69
37792;BME280;29527;55.766;37.570;2023-02-01T02:51:06;98550.81;;;2.34;65.47
37792;BME280;29527;55.766;37.570;2023-02-01T02:56:37;98558.75;;;2.34;65.50
37792;BME280;29527;55.766;37.570;2023-02-01T02:59:24;98553.56;;;2.33;66.01
37792;BME280;29527;55.766;37.570;2023-02-01T03:02:10;98550.06;;;2.32;66.17
37792;BME280;29527;55.766;37.570;2023-02-01T03:04:55;98554.97;;;2.64;65.61
37792;BME280;29527;55.766;37.570;2023-02-01T03:13:17;98550.81;;;2.34;65.91
37792;BME280;29527;55.766;37.570;2023-02-01T03:15:56;98555.16;;;2.35;66.13
37792;BME280;29527;55.766;37.570;2023-02-01T03:18:41;98548.53;;;2.42;66.08
37792;BME280;29527;55.766;37.570;2023-02-01T03:21:13;98554.63;;;2.30;66.45
37792;BME280;29527;55.766;37.570;2023-02-01T03:23:42;98552.59;;;2.21;65.87
37792;BME280;29527;55.766;37.570;2023-02-01T03:26:11;98562.97;;;2.24;66.25
37792;BME280;29527;55.766;37.570;2023-02-01T03:28:43;98551.00;;;2.18;66.35
37792;BME280;29527;55.766;37.570;2023-02-01T03:31:10;98549.22;;;2.19;66.42
37792;BME280;29527;55.766;37.570;2023-02-01T03:33:36;98568.31;;;2.22;66.09
37792;BME280;29527;55.766;37.570;2023-02-01T03:36:24;98567.38;;;2.23;66.21
37792;BME280;29527;55.766;37.570;2023-02-01T03:42:02;98579.22;;;2.18;66.07
37792;BME280;29527;55.766;37.570;2023-02-01T03:44:35;98573.72;;;2.21;65.95
37792;BME280;29527;55.766;37.570;2023-02-01T03:47:09;98579.63;;;2.24;66.31
37792;BME280;29527;55.766;37.570;2023-02-01T03:49:39;98573.53;;;2.24;66.61
37792;BME280;29527;55.766;37.570;2023-02-01T03:52:12;98574.34;;;2.24;66.05
37792;BME280;29527;55.766;37.570;2023-02-01T03:54:39;98586.09;;;2.33;65.67
37792;BME280;29527;55.766;37.570;2023-02-01T03:57:09;98566.53;;;2.23;66.19
37792;BME280;29527;55.766;37.570;2023-02-01T03:59:41;98522.53;;;1.96;66.13
37792;BME280;29527;55.766;37.570;2023-02-01T04:02:07;98585.66;;;2.26;66.46
37792;BME280;29527;55.766;37.570;2023-02-01T04:04:34;98593.19;;;2.33;65.84
37792;BME280;29527;55.766;37.570;2023-02-01T04:06:59;98594.22;;;2.30;65.95
37792;BME280;29527;55.766;37.570;2023-02-01T04:09:25;98588.41;;;2.25;66.09
37792;BME280;29527;55.766;37.570;2023-02-01T04:11:50;98588.50;;;2.23;66.06
37792;BME280;29527;55.766;37.570;2023-02-01T04:14:15;98597.09;;;2.27;66.10
37792;BME280;29527;55.766;37.570;2023-02-01T04:16:41;98572.41;;;2.13;66.33
37792;BME280;29527;55.766;37.570;2023-02-01T04:19:06;98606.69;;;2.28;66.32
37792;BME280;29527;55.766;37.570;2023-02-01T04:21:32;98606.69;;;2.28;66.39
37792;BME280;29527;55.766;37.570;2023-02-01T04:23:57;98614.41;;;2.31;66.33
37792;BME280;29527;55.766;37.570;2023-02-01T04:26:23;98606.50;;;2.31;66.40
37792;BME280;29527;55.766;37.570;2023-02-01T04:28:48;98609.25;;;2.29;66.17
37792;BME280;29527;55.766;37.570;2023-02-01T04:31:15;98609.88;;;2.33;65.94
37792;BME280;29527;55.766;37.570;2023-02-01T04:33:41;98579.38;;;2.14;66.62
37792;BME280;29527;55.766;37.570;2023-02-01T04:36:06;98615.16;;;2.33;66.48
37792;BME280;29527;55.766;37.570;2023-02-01T04:38:32;98621.91;;;2.37;66.76
37792;BME280;29527;55.766;37.570;2023-02-01T04:40:58;98613.25;;;2.35;66.17
37792;BME280;29527;55.766;37.570;2023-02-01T04:43:24;98620.03;;;2.39;66.19
37792;BME280;29527;55.766;37.570;2023-02-01T04:45:50;98625.72;;;2.33;65.90
37792;BME280;29527;55.766;37.570;2023-02-01T04:48:18;98620.44;;;2.33;66.35
37792;BME280;29527;55.766;37.570;2023-02-01T04:50:45;98624.97;;;2.31;66.58
37792;BME280;29527;55.766;37.570;2023-02-01T04:53:16;98627.22;;;2.37;66.35
37792;BME280;29527;55.766;37.570;2023-02-01T04:55:42;98630.78;;;2.36;66.33
37792;BME280;29527;55.766;37.570;2023-02-01T04:58:09;98635.13;;;2.37;66.57
37792;BME280;29527;55.766;37.570;2023-02-01T05:00:34;98635.03;;;2.39;66.75
37792;BME280;29527;55.766;37.570;2023-02-01T05:03:00;98615.44;;;2.28;66.62
37792;BME280;29527;55.766;37.570;2023-02-01T05:05:26;98616.41;;;2.27;66.73
37792;BME280;29527;55.766;37.570;2023-02-01T05:07:52;98633.16;;;2.41;66.38
37792;BME280;29527;55.766;37.570;2023-02-01T05:10:17;98644.38;;;2.44;66.46
37792;BME280;29527;55.766;37.570;2023-02-01T05:12:44;98635.78;;;2.41;66.50
37792;BME280;29527;55.766;37.570;2023-02-01T05:15:29;98647.34;;;2.53;66.31
37792;BME280;29527;55.766;37.570;2023-02-01T05:17:56;98641.59;;;2.46;66.13
37792;BME280;29527;55.766;37.570;2023-02-01T05:20:21;98640.97;;;2.42;66.60
37792;BME280;29527;55.766;37.570;2023-02-01T05:22:47;98649.84;;;2.41;66.79
37792;BME280;29527;55.766;37.570;2023-02-01T05:25:13;98642.03;;;2.40;66.50
37792;BME280;29527;55.766;37.570;2023-02-01T05:27:39;98644.66;;;2.40;66.60
37792;BME280;29527;55.766;37.570;2023-02-01T05:30:05;98657.38;;;2.48;66.83
37792;BME280;29527;55.766;37.570;2023-02-01T05:32:31;98651.66;;;2.54;66.68
37792;BME280;29527;55.766;37.570;2023-02-01T05:34:56;98650.06;;;2.51;66.54
37792;BME280;29527;55.766;37.570;2023-02-01T05:37:22;98661.41;;;2.53;66.94
37792;BME280;29527;55.766;37.570;2023-02-01T05:39:48;98658.84;;;2.52;66.71
37792;BME280;29527;55.766;37.570;2023-02-01T05:42:13;98654.59;;;2.49;66.29
37792;BME280;29527;55.766;37.570;2023-02-01T05:44:39;98654.94;;;2.44;66.37
37792;BME280;29527;55.766;37.570;2023-02-01T05:47:05;98658.81;;;2.39;66.80
37792;BME280;29527;55.766;37.570;2023-02-01T05:49:30;98656.84;;;2.42;66.61
37792;BME280;29527;55.766;37.570;2023-02-01T05:51:56;98657.25;;;2.49;66.75
37792;BME280;29527;55.766;37.570;2023-02-01T05:54:21;98660.75;;;2.50;66.63
37792;BME280;29527;55.766;37.570;2023-02-01T05:56:46;98662.31;;;2.52;65.92
37792;BME280;29527;55.766;37.570;2023-02-01T05:59:12;98664.78;;;2.55;66.40
37792;BME280;29527;55.766;37.570;2023-02-01T06:01:37;98662.16;;;2.55;66.10
37792;BME280;29527;55.766;37.570;2023-02-01T06:04:03;98661.75;;;2.62;65.94
37792;BME280;29527;55.766;37.570;2023-02-01T06:06:29;98668.72;;;2.63;65.38
37792;BME280;29527;55.766;37.570;2023-02-01T06:08:54;98671.88;;;2.68;65.28
37792;BME280;29527;55.766;37.570;2023-02-01T06:11:19;98675.78;;;2.62;65.88
37792;BME280;29527;55.766;37.570;2023-02-01T06:13:45;98677.59;;;2.62;65.20
37792;BME280;29527;55.766;37.570;2023-02-01T06:16:10;98665.84;;;2.53;65.65
37792;BME280;29527;55.766;37.570;2023-02-01T06:18:36;98683.91;;;2.59;65.49
37792;BME280;29527;55.766;37.570;2023-02-01T06:21:02;98679.38;;;2.61;65.73
37792;BME280;29527;55.766;37.570;2023-02-01T06:23:28;98681.81;;;2.64;65.07
37792;BME280;29527;55.766;37.570;2023-02-01T06:26:02;98683.53;;;2.65;65.76
37792;BME280;29527;55.766;37.570;2023-02-01T06:28:29;98687.41;;;2.60;65.34
37792;BME280;29527;55.766;37.570;2023-02-01T06:30:55;98683.91;;;2.59;65.83
37792;BME280;29527;55.766;37.570;2023-02-01T06:33:20;98685.53;;;2.62;65.28
37792;BME280;29527;55.766;37.570;2023-02-01T06:35:46;98687.50;;;2.58;65.37
37792;BME280;29527;55.766;37.570;2023-02-01T06:38:13;98693.88;;;2.55;65.98
37792;BME280;29527;55.766;37.570;2023-02-01T06:40:39;98693.00;;;2.55;65.73
37792;BME280;29527;55.766;37.570;2023-02-01T06:43:04;98686.97;;;2.53;65.54
37792;BME280;29527;55.766;37.570;2023-02-01T06:45:30;98681.59;;;2.54;65.79
37792;BME280;29527;55.766;37.570;2023-02-01T06:47:56;98690.91;;;2.60;65.54
37792;BME280;29527;55.766;37.570;2023-02-01T06:50:21;98694.28;;;2.62;65.77
37792;BME280;29527;55.766;37.570;2023-02-01T06:52:48;98694.19;;;2.64;65.67
37792;BME280;29527;55.766;37.570;2023-02-01T06:55:13;98690.91;;;2.60;65.86
37792;BME280;29527;55.766;37.570;2023-02-01T06:57:39;98694.69;;;2.56;66.30
37792;BME280;29527;55.766;37.570;2023-02-01T07:00:05;98698.78;;;2.47;67.24
37792;BME280;29527;55.766;37.570;2023-02-01T07:02:30;98699.09;;;2.42;67.35
37792;BME280;29527;55.766;37.570;2023-02-01T07:04:56;98702.69;;;2.41;67.32
37792;BME280;29527;55.766;37.570;2023-02-01T07:07:21;98703.53;;;2.42;67.08
37792;BME280;29527;55.766;37.570;2023-02-01T07:09:50;98691.47;;;2.38;66.99
37792;BME280;29527;55.766;37.570;2023-02-01T07:12:15;98701.63;;;2.44;66.97
37792;BME280;29527;55.766;37.570;2023-02-01T07:14:41;98705.13;;;2.44;66.86
37792;BME280;29527;55.766;37.570;2023-02-01T07:17:06;98687.13;;;2.37;65.91
37792;BME280;29527;55.766;37.570;2023-02-01T07:19:32;98708.59;;;2.45;66.72
37792;BME280;29527;55.766;37.570;2023-02-01T07:21:57;98710.41;;;2.44;66.23
37792;BME280;29527;55.766;37.570;2023-02-01T07:24:23;98714.75;;;2.46;65.66
37792;BME280;29527;55.766;37.570;2023-02-01T07:26:48;98719.09;;;2.47;65.59
37792;BME280;29527;55.766;37.570;2023-02-01T07:29:17;98729.09;;;2.41;66.25
37792;BME280;29527;55.766;37.570;2023-02-01T07:31:42;98720.63;;;2.36;66.20
37792;BME280;29527;55.766;37.570;2023-02-01T07:34:08;98724.66;;;2.42;65.82
37792;BME280;29527;55.766;37.570;2023-02-01T07:36:33;98724.19;;;2.35;65.63
37792;BME280;29527;55.766;37.570;2023-02-01T07:38:59;98725.06;;;2.36;66.32
37792;BME280;29527;55.766;37.570;2023-02-01T07:41:25;98718.72;;;2.38;65.64
37792;BME280;29527;55.766;37.570;2023-02-01T07:43:54;98732.28;;;2.47;65.61
37792;BME280;29527;55.766;37.570;2023-02-01T07:46:20;98723.72;;;2.43;65.86
37792;BME280;29527;55.766;37.570;2023-02-01T07:48:46;98699.97;;;2.28;65.37
37792;BME280;29527;55.766;37.570;2023-02-01T07:51:13;98702.13;;;2.36;65.42
37792;BME280;29527;55.766;37.570;2023-02-01T07:53:40;98729.66;;;2.47;65.02
37792;BME280;29527;55.766;37.570;2023-02-01T07:56:17;98717.94;;;2.51;64.98
37792;BME280;29527;55.766;37.570;2023-02-01T07:58:42;98723.50;;;2.46;65.10
37792;BME280;29527;55.766;37.570;2023-02-01T08:01:25;98731.16;;;2.51;65.16
37792;BME280;29527;55.766;37.570;2023-02-01T08:03:59;98717.47;;;2.44;65.12
37792;BME280;29527;55.766;37.570;2023-02-01T08:06:25;98719.28;;;2.43;64.93
37792;BME280;29527;55.766;37.570;2023-02-01T08:08:52;98694.13;;;2.23;65.11
37792;BME280;29527;55.766;37.570;2023-02-01T08:11:19;98728.91;;;2.44;64.78
37792;BME280;29527;55.766;37.570;2023-02-01T08:13:45;98719.81;;;2.49;64.92
37792;BME280;29527;55.766;37.570;2023-02-01T08:16:12;98716.25;;;2.50;64.70
37792;BME280;29527;55.766;37.570;2023-02-01T08:18:39;98677.59;;;2.34;64.75
37792;BME280;29527;55.766;37.570;2023-02-01T08:21:06;98711.09;;;2.61;64.98
37792;BME280;29527;55.766;37.570;2023-02-01T08:23:34;98714.19;;;2.68;64.81
37792;BME280;29527;55.766;37.570;2023-02-01T08:26:11;98720.44;;;2.80;64.41
37792;BME280;29527;55.766;37.570;2023-02-01T08:28:38;98715.38;;;2.77;64.28
37792;BME280;29527;55.766;37.570;2023-02-01T08:31:07;98719.28;;;2.84;64.48
37792;BME280;29527;55.766;37.570;2023-02-01T08:33:33;98712.97;;;2.86;63.78
37792;BME280;29527;55.766;37.570;2023-02-01T08:36:01;98689.22;;;2.72;63.35
37792;BME280;29527;55.766;37.570;2023-02-01T08:38:27;98711.88;;;2.76;63.47
37792;BME280;29527;55.766;37.570;2023-02-01T08:40:53;98713.16;;;2.83;63.73
37792;BME280;29527;55.766;37.570;2023-02-01T08:43:18;98721.22;;;2.95;63.11
37792;BME280;29527;55.766;37.570;2023-02-01T08:45:44;98710.66;;;2.95;63.31
37792;BME280;29527;55.766;37.570;2023-02-01T08:48:09;98698.59;;;2.91;63.37
37792;BME280;29527;55.766;37.570;2023-02-01T08:50:35;98715.13;;;3.07;62.41
37792;BME280;29527;55.766;37.570;2023-02-01T08:53:00;98716.38;;;3.01;62.52
37792;BME280;29527;55.766;37.570;2023-02-01T08:55:26;98709.19;;;3.04;62.10
37792;BME280;29527;55.766;37.570;2023-02-01T08:57:51;98704.09;;;3.00;62.02
37792;BME280;29527;55.766;37.570;2023-02-01T09:00:17;98716.16;;;3.05;61.76
37792;BME280;29527;55.766;37.570;2023-02-01T09:02:43;98693.97;;;3.07;62.52
37792;BME280;29527;55.766;37.570;2023-02-01T09:05:09;98707.63;;;3.27;61.94
37792;BME280;29527;55.766;37.570;2023-02-01T09:07:36;98714.84;;;3.38;61.08
37792;BME280;29527;55.766;37.570;2023-02-01T09:10:02;98704.56;;;3.46;60.99
37792;BME280;29527;55.766;37.570;2023-02-01T09:12:30;98708.47;;;3.53;60.79
37792;BME280;29527;55.766;37.570;2023-02-01T09:14:56;98697.78;;;3.55;60.77
37792;BME280;29527;55.766;37.570;2023-02-01T09:17:25;98700.94;;;3.60;60.65
37792;BME280;29527;55.766;37.570;2023-02-01T09:19:50;98706.88;;;3.64;59.92
37792;BME280;29527;55.766;37.570;2023-02-01T09:22:16;98705.59;;;3.56;60.57
37792;BME280;29527;55.766;37.570;2023-02-01T09:24:41;98695.44;;;3.50;60.82
37792;BME280;29527;55.766;37.570;2023-02-01T09:27:07;98692.72;;;3.52;60.15
37792;BME280;29527;55.766;37.570;2023-02-01T09:29:32;98690.16;;;3.50;60.70
37792;BME280;29527;55.766;37.570;2023-02-01T09:31:58;98695.00;;;3.56;60.34
37792;BME280;29527;55.766;37.570;2023-02-01T09:34:23;98693.84;;;3.61;60.32
37792;BME280;29527;55.766;37.570;2023-02-01T09:36:49;98701.16;;;3.70;59.80
37792;BME280;29527;55.766;37.570;2023-02-01T09:39:14;98699.34;;;3.57;59.51
37792;BME280;29527;55.766;37.570;2023-02-01T09:42:21;98689.50;;;3.59;60.32
37792;BME280;29527;55.766;37.570;2023-02-01T09:48:09;98690.25;;;3.62;59.95
37792;BME280;29527;55.766;37.570;2023-02-01T09:50:39;98673.97;;;3.55;60.06
37792;BME280;29527;55.766;37.570;2023-02-01T09:56:05;98692.59;;;3.53;60.96
37792;BME280;29527;55.766;37.570;2023-02-01T09:58:41;98692.59;;;3.53;60.89
37792;BME280;29527;55.766;37.570;2023-02-01T10:01:16;98691.63;;;3.54;60.54
37792;BME280;29527;55.766;37.570;2023-02-01T10:03:43;98684.97;;;3.49;60.74
37792;BME280;29527;55.766;37.570;2023-02-01T10:17:16;98690.38;;;3.08;61.04
37792;BME280;29527;55.766;37.570;2023-02-01T10:22:41;98689.13;;;3.14;61.67
37792;BME280;29527;55.766;37.570;2023-02-01T10:28:00;98673.41;;;2.98;61.46
37792;BME280;29527;55.766;37.570;2023-02-01T10:30:38;98686.34;;;3.03;62.79
37792;BME280;29527;55.766;37.570;2023-02-01T10:33:24;98687.38;;;3.13;63.05
37792;BME280;29527;55.766;37.570;2023-02-01T10:35:54;98685.50;;;3.15;62.95
37792;BME280;29527;55.766;37.570;2023-02-01T10:38:27;98651.22;;;3.00;62.44
37792;BME280;29527;55.766;37.570;2023-02-01T10:40:56;98679.56;;;3.11;63.21
37792;BME280;29527;55.766;37.570;2023-02-01T10:43:23;98679.78;;;3.08;62.24
37792;BME280;29527;55.766;37.570;2023-02-01T10:45:48;98676.63;;;3.03;63.09
37792;BME280;29527;55.766;37.570;2023-02-01T10:48:14;98682.72;;;2.91;63.46
37792;BME280;29527;55.766;37.570;2023-02-01T10:50:48;98686.63;;;2.85;63.90
37792;BME280;29527;55.766;37.570;2023-02-01T10:55:53;98682.69;;;2.78;65.01
37792;BME280;29527;55.766;37.570;2023-02-01T10:58:30;98686.09;;;2.80;65.39
37792;BME280;29527;55.766;37.570;2023-02-01T11:01:01;98694.88;;;2.80;65.04
37792;BME280;29527;55.766;37.570;2023-02-01T11:05:57;98676.97;;;2.71;65.01
37792;BME280;29527;55.766;37.570;2023-02-01T11:08:23;98683.53;;;2.65;66.26
37792;BME280;29527;55.766;37.570;2023-02-01T11:11:01;98688.41;;;2.71;66.07
37792;BME280;29527;55.766;37.570;2023-02-01T11:13:30;98697.06;;;2.73;66.33
37792;BME280;29527;55.766;37.570;2023-02-01T11:15:57;98681.00;;;2.77;65.87
37792;BME280;29527;55.766;37.570;2023-02-01T11:18:35;98687.19;;;2.90;66.86
37792;BME280;29527;55.766;37.570;2023-02-01T11:21:02;98685.47;;;2.89;65.74
37792;BME280;29527;55.766;37.570;2023-02-01T11:23:30;98689.91;;;2.89;66.16
37792;BME280;29527;55.766;37.570;2023-02-01T11:26:10;98671.63;;;2.85;65.68
37792;BME280;29527;55.766;37.570;2023-02-01T11:28:40;98688.09;;;2.89;65.03
37792;BME280;29527;55.766;37.570;2023-02-01T11:31:11;98696.03;;;2.89;64.80
37792;BME280;29527;55.766;37.570;2023-02-01T11:33:39;98703.63;;;2.81;64.69
37792;BME280;29527;55.766;37.570;2023-02-01T11:36:09;98692.63;;;2.74;64.25
37792;BME280;29527;55.766;37.570;2023-02-01T11:38:36;98666.78;;;2.52;64.66
37792;BME280;29527;55.766;37.570;2023-02-01T11:43:59;98672.28;;;2.49;64.63
37792;BME280;29527;55.766;37.570;2023-02-01T11:46:31;98696.19;;;2.60;64.54
37792;BME280;29527;55.766;37.570;2023-02-01T11:49:33;98693.75;;;2.57;65.01
37792;BME280;29527;55.766;37.570;2023-02-01T11:57:29;98705.81;;;2.61;64.19
37792;BME280;29527;55.766;37.570;2023-02-01T12:05:30;98706.75;;;2.60;64.80
37792;BME280;29527;55.766;37.570;2023-02-01T12:08:00;98718.94;;;2.63;63.06
37792;BME280;29527;55.766;37.570;2023-02-01T12:10:40;98724.94;;;2.65;64.23
37792;BME280;29527;55.766;37.570;2023-02-01T12:15:56;98713.88;;;2.72;63.99
37792;BME280;29527;55.766;37.570;2023-02-01T12:21:22;98712.94;;;2.73;63.09
37792;BME280;29527;55.766;37.570;2023-02-01T12:35:35;98719.88;;;2.62;63.24
37792;BME280;29527;55.766;37.570;2023-02-01T12:43:48;98720.94;;;2.72;61.84
37792;BME280;29527;55.766;37.570;2023-02-01T12:46:23;98727.69;;;2.63;61.78
37792;BME280;29527;55.766;37.570;2023-02-01T12:49:12;98724.00;;;2.66;62.54
37792;BME280;29527;55.766;37.570;2023-02-01T12:51:44;98719.13;;;2.60;61.91
37792;BME280;29527;55.766;37.570;2023-02-01T12:56:47;98730.91;;;2.68;61.82
37792;BME280;29527;55.766;37.570;2023-02-01T13:02:04;98744.59;;;2.61;61.97
37792;BME280;29527;55.766;37.570;2023-02-01T13:05:01;98734.03;;;2.61;61.52
37792;BME280;29527;55.766;37.570;2023-02-01T13:07:41;98733.91;;;2.62;60.81
37792;BME280;29527;55.766;37.570;2023-02-01T13:10:41;98736.13;;;2.55;61.88
37792;BME280;29527;55.766;37.570;2023-02-01T13:13:20;98722.47;;;2.49;61.60
37792;BME280;29527;55.766;37.570;2023-02-01T13:18:59;98730.19;;;2.52;60.04
37792;BME280;29527;55.766;37.570;2023-02-01T13:21:31;98734.44;;;2.54;60.49
37792;BME280;29527;55.766;37.570;2023-02-01T13:23:57;98734.72;;;2.50;60.40
37792;BME280;29527;55.766;37.570;2023-02-01T13:26:23;98735.03;;;2.45;60.47
37792;BME280;29527;55.766;37.570;2023-02-01T13:29:01;98732.22;;;2.61;60.27
37792;BME280;29527;55.766;37.570;2023-02-01T13:40:23;98713.44;;;2.38;60.70
37792;BME280;29527;55.766;37.570;2023-02-01T13:42:55;98741.38;;;2.83;60.37
37792;BME280;29527;55.766;37.570;2023-02-01T13:45:27;98739.78;;;2.67;60.00
37792;BME280;29527;55.766;37.570;2023-02-01T13:47:57;98735.97;;;2.44;60.84
37792;BME280;29527;55.766;37.570;2023-02-01T13:50:30;98735.50;;;2.37;60.88
37792;BME280;29527;55.766;37.570;2023-02-01T13:53:03;98737.59;;;2.32;60.45
37792;BME280;29527;55.766;37.570;2023-02-01T13:55:34;98747.34;;;2.32;60.69
37792;BME280;29527;55.766;37.570;2023-02-01T14:00:39;98736.19;;;2.26;60.90
37792;BME280;29527;55.766;37.570;2023-02-01T14:10:56;98741.53;;;2.39;60.11
37792;BME280;29527;55.766;37.570;2023-02-01T14:13:30;98737.31;;;2.37;59.84
37792;BME280;29527;55.766;37.570;2023-02-01T14:26:26;98755.16;;;2.33;59.54
37792;BME280;29527;55.766;37.570;2023-02-01T14:29:00;98760.84;;;2.27;59.80
37792;BME280;29527;55.766;37.570;2023-02-01T14:31:37;98749.31;;;2.28;59.68
37792;BME280;29527;55.766;37.570;2023-02-01T14:34:17;98757.72;;;2.20;60.27
37792;BME280;29527;55.766;37.570;2023-02-01T14:36:47;98749.25;;;2.15;60.48
37792;BME280;29527;55.766;37.570;2023-02-01T14:39:21;98752.44;;;2.20;60.57
37792;BME280;29527;55.766;37.570;2023-02-01T14:41:54;98749.72;;;2.22;60.10
37792;BME280;29527;55.766;37.570;2023-02-01T14:44:28;98763.13;;;2.19;60.23
37792;BME280;29527;55.766;37.570;2023-02-01T14:47:04;98750.56;;;2.22;60.47
37792;BME280;29527;55.766;37.570;2023-02-01T14:49:37;98758.59;;;2.21;59.91
37792;BME280;29527;55.766;37.570;2023-02-01T14:52:09;98771.03;;;2.19;60.10
37792;BME280;29527;55.766;37.570;2023-02-01T14:54:39;98712.03;;;1.91;60.50
37792;BME280;29527;55.766;37.570;2023-02-01T14:57:05;98752.19;;;2.10;60.86
37792;BME280;29527;55.766;37.570;2023-02-01T14:59:36;98771.72;;;2.08;60.65
37792;BME280;29527;55.766;37.570;2023-02-01T15:02:02;98765.28;;;2.12;60.95
37792;BME280;29527;55.766;37.570;2023-02-01T15:04:41;98766.13;;;2.12;60.93
37792;BME280;29527;55.766;37.570;2023-02-01T15:07:12;98760.97;;;2.11;61.15
37792;BME280;29527;55.766;37.570;2023-02-01T15:09:43;98769.16;;;2.21;60.61
37792;BME280;29527;55.766;37.570;2023-02-01T15:14:44;98772.91;;;2.17;60.65
37792;BME280;29527;55.766;37.570;2023-02-01T15:17:21;98773.38;;;2.23;60.36
37792;BME280;29527;55.766;37.570;2023-02-01T15:19:57;98766.41;;;2.22;60.07
37792;BME280;29527;55.766;37.570;2023-02-01T15:22:24;98767.19;;;2.10;60.86
37792;BME280;29527;55.766;37.570;2023-02-01T15:24:58;98783.84;;;2.10;60.45
37792;BME280;29527;55.766;37.570;2023-02-01T15:27:24;98774.25;;;2.09;60.26
37792;BME280;29527;55.766;37.570;2023-02-01T15:29:50;98779.25;;;1.99;60.68